Time;durP1;ratioP1;P1;durP2;ratioP2;P2;SDS_P1;SDS_P2;PMS_P1;PMS_P2;Temp;Humidity;BMP_temperature;BMP_pressure;BME280_temperature;BME280_humidity;BME280_pressure;Samples;Min_cycle;Max_cycle;Signal;HPM_P1;HPM_P2
2023/09/06 00:01:11;;;;;;;;;;;;;;;;;;5036143;28;19964;-66
2023/09/06 00:03:37;;;;;;;;;;;;;;;;;;5035563;28;19935;-64
2023/09/06 00:06:03;;;;;;;;;;;;;;;;;;5017775;28;20339;-64
2023/09/06 00:08:33;;;;;;;;;;;;;;;;;;5018182;28;20042;-65
2023/09/06 00:11:04;;;;;;;;;;;;;;;;;;5017787;28;20260;-65
2023/09/06 00:13:31;;;;;;;;;;;;;;;;;;5035759;28;19912;-66
2023/09/06 00:15:57;;;;;;;;;;;;;;;;;;5017882;28;19950;-65
2023/09/06 00:18:23;;;;;;;;;;;;;;;;;;5017595;28;20432;-66
2023/09/06 00:20:49;;;;;;;;;;;;;;;;;;5035233;28;19937;-66
2023/09/06 00:23:17;;;;;;;;;;;;;;;;;;5035194;28;19947;-66
2023/09/06 00:25:45;;;;;;;;;;;;;;;;;;5035481;28;19978;-66
2023/09/06 00:28:12;;;;;;;;;;;;;;;;;;5017549;28;19940;-65
2023/09/06 00:30:38;;;;;;;;;;;;;;;;;;5017530;28;19943;-66
2023/09/06 00:33:05;;;;;;;;;;;;;;;;;;5035499;28;19998;-65
2023/09/06 00:35:32;;;;;;;;;;;;;;;;;;5035846;28;20299;-65
2023/09/06 00:37:57;;;;;;;;;;;;;;;;;;5036221;28;19936;-66
2023/09/06 00:40:23;;;;;;;;;;;;;;;;;;5017529;28;19967;-65
2023/09/06 00:42:49;;;;;;;;;;;;;;;;;;5034702;28;19951;-66
2023/09/06 00:45:17;;;;;;;;;;;;;;;;;;5017056;28;19974;-66
2023/09/06 00:47:44;;;;;;;;;;;;;;;;;;5035068;28;20052;-65
2023/09/06 00:50:11;;;;;;;;;;;;;;;;;;5016208;28;19943;-66
2023/09/06 00:52:36;;;;;;;;;;;;;;;;;;5034407;28;20368;-66
2023/09/06 00:55:02;;;;;;;;;;;;;;;;;;5034410;28;19946;-66
2023/09/06 00:57:29;;;;;;;;;;;;;;;;;;5034448;28;19997;-66
2023/09/06 00:59:58;;;;;;;;;;;;;;;;;;5034469;28;20366;-65
2023/09/06 01:02:24;;;;;;;;;;;;;;;;;;5034294;28;20381;-66
2023/09/06 01:04:49;;;;;;;;;;;;;;;;;;5034268;28;19944;-66
2023/09/06 01:07:15;;;;;;;;;;;;;;;;;;5034555;28;20432;-65
2023/09/06 01:09:41;;;;;;;;;;;;;;;;;;5016540;28;19905;-66
2023/09/06 01:12:10;;;;;;;;;;;;;;;;;;5016323;28;20008;-65
2023/09/06 01:14:40;;;;;;;;;;;;;;;;;;5033963;28;20381;-65
2023/09/06 01:17:05;;;;;;;;;;;;;;;;;;5035489;28;19946;-68
2023/09/06 01:19:31;;;;;;;;;;;;;;;;;;5034210;28;19996;-67
2023/09/06 01:21:58;;;;;;;;;;;;;;;;;;5016342;28;19988;-67
2023/09/06 01:24:24;;;;;;;;;;;;;;;;;;5016426;28;19948;-65
2023/09/06 01:26:50;;;;;;;;;;;;;;;;;;5033931;28;20029;-66
2023/09/06 01:29:16;;;;;;;;;;;;;;;;;;5016099;28;19998;-66
2023/09/06 01:31:42;;;;;;;;;;;;;;;;;;5016062;28;19921;-66
2023/09/06 01:34:08;;;;;;;;;;;;;;;;;;5033979;28;20382;-64
2023/09/06 01:36:34;;;;;;;4.53;3.30;;;;;;;;;;5033401;28;19909;-66
2023/09/06 01:39:00;;;;;;;7.10;3.47;;;;;;;;;;5033236;28;20657;-66
2023/09/06 01:41:25;;;;;;;;;;;;;;;;;;5033476;28;20218;-66
2023/09/06 01:43:54;;;;;;;;;;;;;;;;;;5033821;28;19951;-64
2023/09/06 01:46:19;;;;;;;;;;;;;;;;;;5015769;28;20383;-66
2023/09/06 01:48:46;;;;;;;;;;;;;;;;;;5015837;28;19905;-65
2023/09/06 01:51:15;;;;;;;;;;;;;;;;;;5015587;28;20359;-66
2023/09/06 01:56:17;;;;;;;7.17;3.40;;;;;;;;;;5178572;22;20269;-65
2023/09/06 01:58:43;;;;;;;5.53;3.60;;;;;;;;;;5033603;28;20249;-65
2023/09/06 02:01:09;;;;;;;9.53;4.27;;;;;;;;;;5032451;28;20678;-65
2023/09/06 02:03:35;;;;;;;6.83;3.60;;;;;;;;;;5015176;28;20183;-65
2023/09/06 02:06:03;;;;;;;5.03;3.50;;;;;;;;;;5032916;28;20251;-65
2023/09/06 02:08:29;;;;;;;5.57;3.60;;;;;;;;;;5032905;28;20171;-65
2023/09/06 02:10:55;;;;;;;9.60;3.90;;;;;;;;;;5015179;28;20178;-64
2023/09/06 02:13:21;;;;;;;5.20;3.47;;;;;;;;;;5032892;28;20686;-65
2023/09/06 02:15:47;;;;;;;7.13;4.00;;;;;;;;;;5033031;28;20242;-64
2023/09/06 02:18:15;;;;;;;8.40;4.03;;;;;;;;;;5033373;28;20183;-66
2023/09/06 02:20:45;;;;;;;6.30;3.83;;;;;;;;;;5015075;28;20189;-66
2023/09/06 02:23:11;;;;;;;7.40;4.13;;;;;;;;;;5032832;28;20254;-66
2023/09/06 02:25:37;;;;;;;5.33;3.53;;;;;;;;;;5032776;28;20195;-66
2023/09/06 02:28:07;;;;;;;8.70;4.53;;;;;;;;;;5015176;28;20732;-65
2023/09/06 02:30:36;;;;;;;10.43;4.40;;;;;;;;;;5015248;28;20190;-65
2023/09/06 02:33:04;;;;;;;6.37;4.70;;;;;;;;;;5032883;28;20186;-64
2023/09/06 02:35:30;;;;;;;5.37;3.87;;;;;;;;;;5032930;28;20278;-65
2023/09/06 02:37:56;;;;;;;6.43;4.03;;;;;;;;;;5014982;28;20248;-66
2023/09/06 02:40:22;;;;;;;5.10;4.10;;;;;;;;;;5014825;28;20664;-66
2023/09/06 02:42:48;;;;;;;6.83;4.00;;;;;;;;;;5014977;28;20206;-65
2023/09/06 02:45:15;;;;;;;7.33;4.10;;;;;;;;;;5032818;28;20207;-66
2023/09/06 02:47:48;;;;;;;9.17;4.40;;;;;;;;;;5014936;28;20184;-66
2023/09/06 02:50:14;;;;;;;5.07;4.30;;;;;;;;;;5032988;28;20170;-65
2023/09/06 02:52:44;;;;;;;8.67;4.20;;;;;;;;;;5014901;28;20559;-64
2023/09/06 02:55:13;;;;;;;8.57;4.60;;;;;;;;;;5032918;28;20754;-66
2023/09/06 02:57:40;;;;;;;12.13;4.47;;;;;;;;;;5032612;28;20191;-66
2023/09/06 03:00:19;;;;;;;10.17;4.43;;;;;;;;;;5014990;28;20179;-66
2023/09/06 03:02:46;;;;;;;11.37;4.53;;;;;;;;;;5017579;28;20527;-65
2023/09/06 03:05:17;;;;;;;9.97;4.47;;;;;;;;;;5032257;28;20203;-65
2023/09/06 03:07:43;;;;;;;10.90;4.60;;;;;;;;;;5032351;28;20163;-66
2023/09/06 03:10:09;;;;;;;10.40;4.10;;;;;;;;;;5056473;22;20253;-69
2023/09/06 03:12:35;;;;;;;10.63;4.43;;;;;;;;;;5015596;28;20606;-69
2023/09/06 03:15:01;;;;;;;7.33;3.80;;;;;;;;;;5036038;28;20679;-69
2023/09/06 03:17:27;;;;;;;9.70;4.45;;;;;;;;;;5036239;28;20175;-70
2023/09/06 03:19:53;;;;;;;7.63;4.07;;;;;;;;;;5036240;28;20939;-69
2023/09/06 03:22:20;;;;;;;9.47;4.23;;;;;;;;;;5037400;28;20179;-70
2023/09/06 03:24:46;;;;;;;10.33;4.33;;;;;;;;;;5036285;28;20179;-71
2023/09/06 03:27:16;;;;;;;5.20;4.17;;;;;;;;;;5035896;28;20175;-69
2023/09/06 03:29:42;;;;;;;;;;;;;;;;;;5018629;28;20569;-70
2023/09/06 03:32:07;;;;;;;;;;;;;;;;;;5036256;28;19912;-69
2023/09/06 03:34:33;;;;;;;;;;;;;;;;;;5036389;28;20320;-72
2023/09/06 03:37:04;;;;;;;14.10;4.50;;;;;;;;;;5018471;28;20262;-68
2023/09/06 03:39:30;;;;;;;8.13;4.97;;;;;;;;;;5017929;28;20231;-68
2023/09/06 03:42:00;;;;;;;6.97;4.77;;;;;;;;;;5017924;28;20187;-68
2023/09/06 03:44:27;;;;;;;5.90;4.20;;;;;;;;;;5036013;28;20171;-68
2023/09/06 03:46:56;;;;;;;7.77;4.27;;;;;;;;;;5017886;28;20650;-68
2023/09/06 03:49:23;;;;;;;11.93;4.50;;;;;;;;;;5018178;28;20206;-68
2023/09/06 03:51:49;;;;;;;5.20;4.23;;;;;;;;;;5018053;28;20183;-68
2023/09/06 03:54:17;;;;;;;7.70;4.77;;;;;;;;;;5035929;28;20203;-70
2023/09/06 03:56:43;;;;;;;5.90;4.10;;;;;;;;;;5018174;28;20183;-69
2023/09/06 03:59:09;;;;;;;7.23;4.33;;;;;;;;;;5018085;28;20207;-69
2023/09/06 04:01:36;;;;;;;6.50;4.40;;;;;;;;;;5035508;28;20556;-68
2023/09/06 04:04:02;;;;;;;6.73;4.37;;;;;;;;;;5035491;28;20175;-69
2023/09/06 04:06:30;;;;;;;8.00;4.87;;;;;;;;;;5017671;28;20667;-69
2023/09/06 04:08:56;;;;;;;9.57;4.63;;;;;;;;;;5035818;28;20259;-69
2023/09/06 04:11:23;;;;;;;7.77;4.60;;;;;;;;;;5035636;28;20207;-69
2023/09/06 04:13:51;;;;;;;11.83;5.30;;;;;;;;;;5035521;28;20249;-69
2023/09/06 04:16:17;;;;;;;13.37;5.33;;;;;;;;;;5036384;28;20175;-70
2023/09/06 04:18:43;;;;;;;8.33;4.87;;;;;;;;;;5018071;28;20613;-69
2023/09/06 04:21:09;;;;;;;11.13;6.73;;;;;;;;;;5035000;28;20565;-69
2023/09/06 04:23:39;;;;;;;12.97;6.20;;;;;;;;;;5034529;28;20207;-69
2023/09/06 04:26:05;;;;;;;8.70;5.63;;;;;;;;;;5034460;28;20210;-69
2023/09/06 04:28:31;;;;;;;12.03;6.30;;;;;;;;;;5017317;28;20711;-69
2023/09/06 04:31:02;;;;;;;8.93;6.10;;;;;;;;;;5017081;28;20676;-69
2023/09/06 04:33:28;;;;;;;15.20;7.47;;;;;;;;;;5035119;28;20155;-69
2023/09/06 04:35:54;;;;;;;10.60;6.50;;;;;;;;;;5016735;28;20699;-69
2023/09/06 04:38:23;;;;;;;14.80;6.60;;;;;;;;;;5034663;28;20183;-68
2023/09/06 04:40:51;;;;;;;14.33;6.90;;;;;;;;;;5016749;28;20207;-69
2023/09/06 04:43:18;;;;;;;12.37;6.80;;;;;;;;;;5016613;28;20622;-69
2023/09/06 04:45:44;;;;;;;13.00;6.77;;;;;;;;;;5016734;28;20398;-69
2023/09/06 04:48:11;;;;;;;15.67;6.33;;;;;;;;;;5016553;28;20186;-69
2023/09/06 04:50:41;;;;;;;14.97;7.57;;;;;;;;;;5034358;28;20195;-69
2023/09/06 04:53:11;;;;;;;14.13;8.80;;;;;;;;;;5034264;28;20183;-69
2023/09/06 04:55:37;;;;;;;18.57;9.40;;;;;;;;;;5034266;28;20187;-69
2023/09/06 04:58:04;;;;;;;19.97;9.83;;;;;;;;;;5016431;28;20182;-69
2023/09/06 05:00:36;;;;;;;15.00;8.43;;;;;;;;;;5034202;28;20209;-69
2023/09/06 05:03:08;;;;;;;16.70;8.80;;;;;;;;;;5034320;28;20180;-69
2023/09/06 05:05:35;;;;;;;19.83;10.37;;;;;;;;;;5034411;28;20168;-69
2023/09/06 05:08:03;;;;;;;17.00;10.17;;;;;;;;;;5016722;28;20265;-69
2023/09/06 05:10:29;;;;;;;23.70;11.43;;;;;;;;;;5034853;28;20730;-69
2023/09/06 05:12:55;;;;;;;19.20;10.67;;;;;;;;;;5034508;28;20253;-69
2023/09/06 05:15:21;;;;;;;23.43;10.87;;;;;;;;;;5033989;28;20231;-69
2023/09/06 05:17:47;;;;;;;18.87;11.13;;;;;;;;;;5034123;28;20171;-69
2023/09/06 05:20:27;;;;;;;20.97;11.27;;;;;;;;;;5034124;28;20199;-69
2023/09/06 05:22:54;;;;;;;20.47;11.30;;;;;;;;;;5034442;28;20175;-69
2023/09/06 05:25:20;;;;;;;19.07;10.27;;;;;;;;;;5034018;28;20742;-69
2023/09/06 05:27:46;;;;;;;19.23;10.37;;;;;;;;;;5034139;28;20187;-69
2023/09/06 05:30:12;;;;;;;16.83;9.40;;;;;;;;;;5034072;28;20573;-69
2023/09/06 05:32:38;;;;;;;15.47;10.23;;;;;;;;;;5033981;28;20625;-69
2023/09/06 05:35:04;;;;;;;18.83;10.23;;;;;;;;;;5033617;28;20217;-69
2023/09/06 05:37:30;;;;;;;18.67;9.80;;;;;;;;;;5033934;28;20551;-69
2023/09/06 05:39:56;;;;;;;16.43;9.20;;;;;;;;;;5033899;28;20198;-68
2023/09/06 05:42:22;;;;;;;16.00;8.57;;;;;;;;;;5015891;28;20263;-69
2023/09/06 05:44:48;;;;;;;14.00;7.90;;;;;;;;;;5033432;28;20187;-69
2023/09/06 05:47:14;;;;;;;16.83;8.03;;;;;;;;;;5015757;28;20186;-68
2023/09/06 05:49:40;;;;;;;16.47;7.80;;;;;;;;;;5015626;28;20294;-69
2023/09/06 05:52:07;;;;;;;11.53;7.27;;;;;;;;;;5033637;28;20186;-69
2023/09/06 05:54:33;;;;;;;15.27;8.07;;;;;;;;;;5015673;28;20203;-69
2023/09/06 05:56:59;;;;;;;13.40;8.03;;;;;;;;;;5033407;28;20179;-69
2023/09/06 05:59:25;;;;;;;11.50;7.60;;;;;;;;;;5015562;28;20252;-68
2023/09/06 06:01:51;;;;;;;13.23;6.93;;;;;;;;;;5015587;28;20241;-69
2023/09/06 06:04:17;;;;;;;13.13;7.20;;;;;;;;;;5017069;28;20253;-69
2023/09/06 06:06:43;;;;;;;10.63;6.53;;;;;;;;;;5016220;28;20640;-69
2023/09/06 06:09:11;;;;;;;15.03;7.23;;;;;;;;;;5033696;28;20202;-69
2023/09/06 06:11:40;;;;;;;14.97;6.80;;;;;;;;;;5033146;28;20164;-69
2023/09/06 06:14:07;;;;;;;16.57;7.57;;;;;;;;;;5033115;28;20680;-69
2023/09/06 06:16:33;;;;;;;12.33;6.47;;;;;;;;;;5015382;28;20183;-69
2023/09/06 06:18:59;;;;;;;19.80;7.20;;;;;;;;;;5015261;28;20175;-69
2023/09/06 06:21:30;;;;;;;17.13;6.97;;;;;;;;;;5032928;28;20171;-69
2023/09/06 06:23:56;;;;;;;10.20;6.70;;;;;;;;;;5033282;28;20162;-69
2023/09/06 06:26:22;;;;;;;11.47;6.57;;;;;;;;;;5032990;28;20179;-69
2023/09/06 06:28:49;;;;;;;16.67;6.23;;;;;;;;;;5033216;28;20172;-69
2023/09/06 06:31:15;;;;;;;13.87;6.97;;;;;;;;;;5015176;28;20179;-69
2023/09/06 06:33:42;;;;;;;10.27;6.53;;;;;;;;;;5032764;28;20181;-69
2023/09/06 06:36:08;;;;;;;13.57;6.47;;;;;;;;;;5015101;28;20688;-69
2023/09/06 06:38:34;;;;;;;11.03;6.27;;;;;;;;;;5032809;28;20210;-69
2023/09/06 06:41:00;;;;;;;20.40;7.43;;;;;;;;;;5032637;28;20209;-69
2023/09/06 06:43:27;;;;;;;17.67;6.73;;;;;;;;;;5015051;28;20234;-68
2023/09/06 06:45:54;;;;;;;14.33;6.50;;;;;;;;;;5032761;28;20179;-67
2023/09/06 06:48:20;;;;;;;11.53;6.20;;;;;;;;;;5035164;28;20594;-68
2023/09/06 06:50:46;;;;;;;13.37;7.23;;;;;;;;;;5018829;28;20229;-69
2023/09/06 06:53:12;;;;;;;9.63;5.57;;;;;;;;;;5018776;28;20304;-69
2023/09/06 06:55:38;;;;;;;11.87;5.80;;;;;;;;;;5018721;28;20206;-69
2023/09/06 06:58:06;;;;;;;12.37;5.87;;;;;;;;;;5036930;28;20194;-69
2023/09/06 07:00:32;;;;;;;11.40;5.50;;;;;;;;;;5019042;28;20290;-69
2023/09/06 07:02:58;;;;;;;14.73;4.90;;;;;;;;;;5036295;28;20280;-69
2023/09/06 07:05:24;;;;;;;11.47;5.70;;;;;;;;;;5036869;28;20658;-68
2023/09/06 07:07:50;;;;;;;12.53;4.80;;;;;;;;;;5036360;28;20187;-69
2023/09/06 07:10:17;;;;;;;8.83;5.30;;;;;;;;;;5018395;28;20572;-69
2023/09/06 07:12:43;;;;;;;10.60;4.97;;;;;;;;;;5036358;28;20266;-69
2023/09/06 07:15:10;;;;;;;14.33;5.90;;;;;;;;;;5018382;28;20298;-69
2023/09/06 07:17:36;;;;;;;9.97;5.43;;;;;;;;;;5018421;28;20171;-69
2023/09/06 07:20:05;;;;;;;13.20;4.93;;;;;;;;;;5036100;28;20195;-69
2023/09/06 07:22:30;;;;;;;8.70;5.40;;;;;;;;;;5036107;28;20224;-69
2023/09/06 07:24:56;;;;;;;10.73;5.90;;;;;;;;;;5018169;28;20184;-69
2023/09/06 07:27:22;;;;;;;11.10;5.27;;;;;;;;;;5036015;28;20182;-69
2023/09/06 07:29:49;;;;;;;9.83;5.03;;;;;;;;;;5018211;28;20208;-69
2023/09/06 07:32:15;;;;;;;11.97;5.40;;;;;;;;;;5036406;28;20183;-69
2023/09/06 07:34:40;;;;;;;6.33;4.77;;;;;;;;;;5035930;28;20581;-69
2023/09/06 07:37:06;;;;;;;8.77;4.90;;;;;;;;;;5036232;28;20175;-69
2023/09/06 07:39:32;;;;;;;10.77;5.20;;;;;;;;;;5017904;28;20199;-69
2023/09/06 07:41:59;;;;;;;12.97;5.50;;;;;;;;;;5018179;28;20202;-68
2023/09/06 07:44:29;;;;;;;11.20;5.27;;;;;;;;;;5017832;28;20241;-69
2023/09/06 07:46:55;;;;;;;9.67;5.70;;;;;;;;;;5035500;28;20636;-69
2023/09/06 07:49:21;;;;;;;8.50;5.40;;;;;;;;;;5017787;28;20286;-69
2023/09/06 07:51:47;;;;;;;5.87;4.17;;;;;;;;;;5035692;28;20207;-69
2023/09/06 07:54:14;;;;;;;11.13;4.83;;;;;;;;;;5019230;28;20663;-69
2023/09/06 07:56:40;;;;;;;12.97;4.97;;;;;;;;;;5035572;28;20203;-69
2023/09/06 07:59:10;;;;;;;11.00;5.07;;;;;;;;;;5034166;28;20179;-69
2023/09/06 08:01:36;;;;;;;11.57;4.77;;;;;;;;;;5017832;28;20179;-70
2023/09/06 08:04:02;;;;;;;6.40;4.53;;;;;;;;;;5035473;28;20175;-69
2023/09/06 08:06:28;;;;;;;6.67;4.73;;;;;;;;;;5035487;28;20206;-69
2023/09/06 08:08:54;;;;;;;9.17;4.23;;;;;;;;;;5035577;28;20204;-69
2023/09/06 08:11:20;;;;;;;6.90;4.67;;;;;;;;;;5035420;28;20178;-69
2023/09/06 08:13:46;;;;;;;8.00;4.57;;;;;;;;;;5035618;28;20182;-68
2023/09/06 08:16:12;;;;;;;7.20;4.23;;;;;;;;;;5017511;28;20218;-68
2023/09/06 08:18:38;;;;;;;6.47;4.27;;;;;;;;;;5035417;28;20178;-69
2023/09/06 08:21:03;;;;;;;7.03;4.90;;;;;;;;;;5017495;28;20199;-69
2023/09/06 08:23:30;;;;;;;7.67;4.30;;;;;;;;;;5035547;28;20218;-69
2023/09/06 08:25:57;;;;;;;8.67;4.60;;;;;;;;;;5018825;28;20242;-67
2023/09/06 08:28:23;;;;;;;5.67;4.20;;;;;;;;;;5036400;28;20569;-67
2023/09/06 08:30:49;;;;;;;10.07;5.13;;;;;;;;;;5018101;28;20707;-66
2023/09/06 08:33:16;;;;;;;8.10;4.93;;;;;;;;;;5035237;28;20172;-69
2023/09/06 08:35:42;;;;;;;9.63;5.00;;;;;;;;;;5001416;28;20211;-67
2023/09/06 08:38:09;;;;;;;5.10;3.93;;;;;;;;;;5017307;28;20175;-68
2023/09/06 08:40:36;;;;;;;7.53;4.70;;;;;;;;;;5035120;28;20195;-67
2023/09/06 08:43:03;;;;;;;7.23;4.50;;;;;;;;;;5035448;28;20171;-67
2023/09/06 08:45:29;;;;;;;8.43;4.60;;;;;;;;;;5017285;28;20179;-68
2023/09/06 08:47:56;;;;;;;7.90;4.20;;;;;;;;;;5035545;28;20233;-67
2023/09/06 08:50:22;;;;;;;7.40;4.87;;;;;;;;;;5016876;28;20210;-68
2023/09/06 08:52:50;;;;;;;11.07;7.10;;;;;;;;;;5035033;28;20541;-69
2023/09/06 08:55:17;;;;;;;6.53;4.73;;;;;;;;;;5035800;28;20720;-68
2023/09/06 08:57:44;;;;;;;11.23;4.73;;;;;;;;;;5017365;28;20218;-67
2023/09/06 09:00:11;;;;;;;4.93;4.30;;;;;;;;;;5017653;28;20226;-68
2023/09/06 09:02:42;;;;;;;5.10;4.50;;;;;;;;;;5018267;28;20179;-67
2023/09/06 09:05:09;;;;;;;6.23;4.33;;;;;;;;;;5035529;28;20187;-68
2023/09/06 09:07:36;;;;;;;6.60;4.80;;;;;;;;;;5035856;28;20590;-68
2023/09/06 09:10:07;;;;;;;7.07;4.50;;;;;;;;;;5016114;28;20226;-67
2023/09/06 09:12:33;;;;;;;5.40;4.27;;;;;;;;;;5034242;28;20198;-68
2023/09/06 09:14:59;;;;;;;8.77;4.90;;;;;;;;;;5034249;28;20211;-67
2023/09/06 09:17:26;;;;;;;5.60;4.50;;;;;;;;;;5034204;28;20186;-67
2023/09/06 09:19:56;;;;;;;9.20;4.50;;;;;;;;;;5033884;28;20202;-67
2023/09/06 09:22:23;;;;;;;6.83;5.27;;;;;;;;;;5033246;28;20379;-67
2023/09/06 09:24:49;;;;;;;8.73;4.70;;;;;;;;;;5034031;28;20421;-67
2023/09/06 09:27:17;;;;;;;13.90;7.03;;;;;;;;;;5033821;28;20184;-67
2023/09/06 09:29:44;;;;;;;7.78;5.60;;;;;;;;;;5032666;28;20807;-67
2023/09/06 09:32:12;;;;;;;7.60;5.00;;;;;;;;;;5033772;28;20179;-67
2023/09/06 09:34:39;;;;;;;9.30;5.28;;;;;;;;;;5034026;28;20198;-67
2023/09/06 09:37:08;;;;;;;9.87;5.73;;;;;;;;;;5033871;28;20660;-67
2023/09/06 09:39:34;;;;;;;13.53;6.90;;;;;;;;;;5014829;28;20458;-67
2023/09/06 09:42:00;;;;;;;12.57;6.43;;;;;;;;;;5034399;28;20412;-67
2023/09/06 09:44:26;;;;;;;7.83;5.43;;;;;;;;;;5033856;28;20175;-67
2023/09/06 09:46:55;;;;;;;9.47;5.67;;;;;;;;;;5032809;28;20401;-67
2023/09/06 09:49:22;;;;;;;8.37;5.00;;;;;;;;;;5014949;28;20421;-67
2023/09/06 09:51:50;;;;;;;8.80;4.40;;;;;;;;;;5033836;28;20175;-67
2023/09/06 09:54:17;;;;;;;8.13;5.10;;;;;;;;;;5032415;28;20403;-67
2023/09/06 09:56:47;;;;;;;8.70;5.40;;;;;;;;;;5015687;28;20234;-67
2023/09/06 09:59:15;;;;;;;7.10;5.82;;;;;;;;;;5032419;28;20379;-67
2023/09/06 10:01:42;;;;;;;11.27;6.03;;;;;;;;;;5033354;28;20256;-67
2023/09/06 10:04:11;;;;;;;9.87;5.60;;;;;;;;;;5033544;28;20204;-67
2023/09/06 10:06:38;;;;;;;10.47;7.93;;;;;;;;;;5015849;28;20186;-67
2023/09/06 10:09:12;;;;;;;13.13;8.27;;;;;;;;;;5015522;28;20175;-66
2023/09/06 10:11:39;;;;;;;12.67;7.97;;;;;;;;;;5033488;28;20155;-67
2023/09/06 10:14:07;;;;;;;6.50;5.80;;;;;;;;;;5033188;28;20811;-67
2023/09/06 10:16:33;;;;;;;10.53;6.60;;;;;;;;;;5033304;28;20178;-68
2023/09/06 10:18:59;;;;;;;7.53;5.90;;;;;;;;;;5033360;28;20662;-67
2023/09/06 10:21:26;;;;;;;7.90;5.33;;;;;;;;;;5033422;28;20202;-67
2023/09/06 10:23:52;;;;;;;6.23;4.70;;;;;;;;;;5015053;28;20217;-67
2023/09/06 10:26:25;;;;;;;7.73;4.47;;;;;;;;;;5015553;28;20559;-67
2023/09/06 10:28:58;;;;;;;5.17;4.67;;;;;;;;;;5039113;22;20250;-67
2023/09/06 10:31:51;;;;;;;8.97;5.40;;;;;;;;;;5015618;28;20198;-69
2023/09/06 10:34:17;;;;;;;8.73;4.73;;;;;;;;;;5031843;28;20265;-68
2023/09/06 10:36:51;;;;;;;9.40;6.10;;;;;;;;;;5032930;28;20710;-67
2023/09/06 10:39:21;;;;;;;10.87;6.47;;;;;;;;;;5032601;28;20203;-67
2023/09/06 10:42:05;;;;;;;10.37;5.23;;;;;;;;;;5032724;28;20185;-67
2023/09/06 10:44:51;;;;;;;10.73;5.47;;;;;;;;;;5032653;28;20185;-67
2023/09/06 10:47:28;;;;;;;13.60;5.27;;;;;;;;;;5015024;28;20186;-67
2023/09/06 10:50:09;;;;;;;7.33;4.80;;;;;;;;;;5032635;28;20218;-68
2023/09/06 10:52:39;;;;;;;7.53;4.87;;;;;;;;;;5014847;28;20186;-67
2023/09/06 10:55:13;;;;;;;7.17;4.83;;;;;;;;;;5032452;28;20223;-68
2023/09/06 10:57:51;;;;;;;9.20;4.43;;;;;;;;;;5033000;28;20160;-67
2023/09/06 11:00:19;;;;;;;9.70;4.80;;;;;;;;;;5032442;28;20241;-66
2023/09/06 11:03:05;;;;;;;9.80;5.10;;;;;;;;;;5032654;28;20254;-67
2023/09/06 11:05:32;;;;;;;8.23;6.20;;;;;;;;;;5032361;28;20187;-67
2023/09/06 11:07:58;;;;;;;6.63;4.70;;;;;;;;;;5014770;28;20656;-64
2023/09/06 11:10:24;;;;;;;9.37;5.27;;;;;;;;;;5014789;28;20714;-65
2023/09/06 11:12:53;;;;;;;5.07;4.53;;;;;;;;;;5033098;28;20267;-64
2023/09/06 11:15:19;;;;;;;;;;;;;;;;;;5032809;28;20112;-66
2023/09/06 11:17:45;;;;;;;7.30;4.77;;;;;;;;;;5031526;28;20434;-65
2023/09/06 11:20:12;;;;;;;6.45;5.53;;;;;;;;;;5014863;28;20195;-68
2023/09/06 11:22:39;;;;;;;9.75;6.35;;;;;;;;;;5032867;28;20207;-66
2023/09/06 11:25:21;;;;;;;7.40;6.68;;;;;;;;;;5014628;28;20187;-66
2023/09/06 11:27:48;;;;;;;7.35;6.35;;;;;;;;;;5032360;28;20187;-64
2023/09/06 11:30:23;;;;;;;6.05;5.45;;;;;;;;;;5032280;28;20225;-67
2023/09/06 11:32:50;;;;;;;9.68;7.13;;;;;;;;;;5032489;28;20163;-64
2023/09/06 11:35:16;;;;;;;7.28;6.45;;;;;;;;;;5035566;28;20198;-64
2023/09/06 11:37:46;;;;;;;5.85;4.05;;;;;;;;;;5018006;28;20187;-66
2023/09/06 11:40:15;;;;;;;9.65;4.50;;;;;;;;;;5035912;28;20195;-67
2023/09/06 11:42:42;;;;;;;5.38;4.30;;;;;;;;;;5036164;28;20175;-65
2023/09/06 11:45:09;;;;;;;5.07;4.65;;;;;;;;;;5018142;28;20190;-66
2023/09/06 11:47:37;;;;;;;8.90;7.22;;;;;;;;;;5018346;28;20179;-66
2023/09/06 11:50:05;;;;;;;12.80;8.48;;;;;;;;;;5018204;28;20762;-66
2023/09/06 11:52:31;;;;;;;13.98;6.70;;;;;;;;;;5035880;28;20186;-67
2023/09/06 11:54:58;;;;;;;11.90;6.28;;;;;;;;;;5036049;28;20199;-65
2023/09/06 11:57:27;;;;;;;7.00;4.82;;;;;;;;;;5034600;28;20391;-67
2023/09/06 11:59:57;;;;;;;5.50;4.57;;;;;;;;;;5016719;28;20772;-68
2023/09/06 12:02:26;;;;;;;6.78;5.28;;;;;;;;;;5034577;28;20392;-66
2023/09/06 12:04:52;;;;;;;4.18;3.78;;;;;;;;;;5035348;28;20179;-66
2023/09/06 12:07:23;;;;;;;5.10;4.55;;;;;;;;;;5017626;28;20183;-68
2023/09/06 12:09:49;;;;;;;10.18;4.50;;;;;;;;;;5035180;28;20203;-66
2023/09/06 12:12:17;;;;;;;5.65;4.25;;;;;;;;;;5035000;28;20190;-67
2023/09/06 12:14:43;;;;;;;4.35;3.83;;;;;;;;;;5034933;28;20234;-67
2023/09/06 12:17:11;;;;;;;5.30;4.30;;;;;;;;;;5017274;28;20321;-67
2023/09/06 12:19:37;;;;;;;7.60;4.45;;;;;;;;;;5017346;28;20278;-68
2023/09/06 12:22:05;;;;;;;5.18;4.13;;;;;;;;;;5035387;28;20171;-68
2023/09/06 12:24:33;;;;;;;6.50;4.95;;;;;;;;;;5035228;28;20174;-68
2023/09/06 12:27:00;;;;;;;5.85;4.40;;;;;;;;;;5016966;28;20186;-66
2023/09/06 12:29:26;;;;;;;11.05;4.90;;;;;;;;;;5034891;28;20607;-66
2023/09/06 12:31:53;;;;;;;10.00;4.63;;;;;;;;;;5034980;28;20321;-67
2023/09/06 12:34:19;;;;;;;7.60;4.45;;;;;;;;;;5016913;28;20180;-67
2023/09/06 12:36:45;;;;;;;5.53;4.13;;;;;;;;;;5017161;28;20263;-67
2023/09/06 12:39:11;;;;;;;5.78;4.30;;;;;;;;;;5016840;28;20736;-67
2023/09/06 12:41:37;;;;;;;7.25;4.47;;;;;;;;;;5034812;28;20586;-69
2023/09/06 12:44:03;;;;;;;4.95;4.15;;;;;;;;;;5035178;28;20193;-67
2023/09/06 12:46:29;;;;;;;6.07;4.57;;;;;;;;;;5034211;28;20168;-67
2023/09/06 12:48:55;;;;;;;4.60;3.40;;;;;;;;;;5016638;28;20333;-68
2023/09/06 12:51:21;;;;;;;5.93;4.53;;;;;;;;;;5016550;28;20282;-68
2023/09/06 12:53:47;;;;;;;8.90;5.15;;;;;;;;;;5034406;28;20182;-69
2023/09/06 12:56:13;;;;;;;6.40;4.20;;;;;;;;;;5034321;28;20195;-66
2023/09/06 12:58:39;;;;;;;4.68;3.58;;;;;;;;;;5034342;28;20199;-67
2023/09/06 13:01:10;;;;;;;6.25;3.60;;;;;;;;;;5034529;28;20187;-67
2023/09/06 13:03:36;;;;;;;7.18;4.20;;;;;;;;;;5034478;28;20151;-67
2023/09/06 13:06:02;;;;;;;4.43;4.05;;;;;;;;;;5016369;28;20190;-66
2023/09/06 13:08:28;;;;;;;5.15;3.65;;;;;;;;;;5034381;28;20206;-67
2023/09/06 13:10:54;;;;;;;5.30;3.90;;;;;;;;;;5034027;28;20201;-67
2023/09/06 13:13:20;;;;;;;;;;;;;;;;;;5034216;28;20030;-68
2023/09/06 13:15:46;;;;;;;6.97;4.50;;;;;;;;;;5015974;28;20164;-68
2023/09/06 13:18:12;;;;;;;6.47;4.03;;;;;;;;;;5016066;28;20253;-65
2023/09/06 13:20:38;;;;;;;15.32;4.53;;;;;;;;;;5034145;28;20171;-67
2023/09/06 13:23:04;;;;;;;5.93;3.90;;;;;;;;;;5016910;28;20178;-66
2023/09/06 13:25:32;;;;;;;3.80;3.15;;;;;;;;;;5033640;28;20183;-67
2023/09/06 13:27:58;;;;;;;5.03;3.50;;;;;;;;;;5033775;28;20233;-67
2023/09/06 13:30:23;;;;;;;5.18;3.70;;;;;;;;;;5033503;28;20219;-67
2023/09/06 13:32:49;;;;;;;7.50;3.65;;;;;;;;;;5033760;28;20234;-67
2023/09/06 13:35:15;;;;;;;6.53;4.68;;;;;;;;;;5033888;28;20191;-67
2023/09/06 13:37:41;;;;;;;8.27;4.90;;;;;;;;;;5033606;28;20179;-67
2023/09/06 13:40:08;;;;;;;7.75;4.88;;;;;;;;;;5033545;28;20286;-68
2023/09/06 13:42:34;;;;;;;6.07;4.40;;;;;;;;;;5015781;28;20661;-67
2023/09/06 13:45:00;;;;;;;6.10;4.40;;;;;;;;;;5033578;28;20652;-68
2023/09/06 13:47:26;;;;;;;5.70;4.18;;;;;;;;;;5033544;28;20278;-68
2023/09/06 13:49:52;;;;;;;5.93;4.45;;;;;;;;;;5033566;28;20263;-67
2023/09/06 13:52:18;;;;;;;8.05;4.05;;;;;;;;;;5033509;28;20552;-67
2023/09/06 13:54:44;;;;;;;5.70;3.88;;;;;;;;;;5033670;28;20672;-67
2023/09/06 13:57:10;;;;;;;9.05;6.28;;;;;;;;;;5033202;28;20190;-67
2023/09/06 13:59:36;;;;;;;9.45;6.03;;;;;;;;;;5015585;28;20195;-67
2023/09/06 14:02:05;;;;;;;8.90;3.83;;;;;;;;;;5015603;28;20171;-67
2023/09/06 14:04:31;;;;;;;4.35;3.70;;;;;;;;;;5015418;28;20175;-68
2023/09/06 14:06:57;;;;;;;9.73;3.80;;;;;;;;;;5033556;28;20543;-68
2023/09/06 14:09:23;;;;;;;4.40;4.00;;;;;;;;;;5015554;28;20298;-67
2023/09/06 14:11:49;;;;;;;4.13;3.83;;;;;;;;;;5033243;28;20190;-69
2023/09/06 14:14:15;;;;;;;9.70;4.28;;;;;;;;;;5033022;28;20179;-68
2023/09/06 14:16:41;;;;;;;5.25;3.97;;;;;;;;;;5033351;28;20171;-67
2023/09/06 14:19:07;;;;;;;5.47;4.10;;;;;;;;;;5033094;28;20191;-68
2023/09/06 14:21:33;;;;;;;7.15;3.72;;;;;;;;;;5015219;28;20184;-68
2023/09/06 14:23:59;;;;;;;5.60;3.40;;;;;;;;;;5015007;28;20202;-68
2023/09/06 14:26:26;;;;;;;;;;;;;;;;;;5032923;28;20175;-68
2023/09/06 14:28:52;;;;;;;;;;;;;;;;;;5032968;28;19950;-68
2023/09/06 14:31:18;;;;;;;;;;;;;;;;;;5033096;28;19943;-67
2023/09/06 14:33:45;;;;;;;;;;;;;;;;;;5032952;28;19905;-68
2023/09/06 14:36:11;;;;;;;;;;;;;;;;;;5015202;28;19909;-67
2023/09/06 14:38:37;;;;;;;;;;;;;;;;;;5015369;28;20371;-66
2023/09/06 14:41:03;;;;;;;;;;;;;;;;;;5015641;28;20030;-66
2023/09/06 14:43:29;;;;;;;;;;;;;;;;;;5015305;28;19944;-67
2023/09/06 14:45:55;;;;;;;;;;;;;;;;;;5015292;28;20338;-66
2023/09/06 14:48:22;;;;;;;5.07;4.28;;;;;;;;;;5032873;28;20195;-68
2023/09/06 14:50:56;;;;;;;6.55;4.55;;;;;;;;;;5033187;28;20167;-66
2023/09/06 14:53:22;;;;;;;5.80;4.65;;;;;;;;;;5033118;28;20185;-66
2023/09/06 14:55:48;;;;;;;9.43;5.63;;;;;;;;;;5032626;28;20207;-65
2023/09/06 14:58:14;;;;;;;31.33;9.38;;;;;;;;;;5032796;28;20216;-65